»·PEaware :: N232Z KOXR-KCRQ

N232Z :: KOXR-KCRQ

FLIGHT INFORMATION

Flight Status: Arrived
Operator: Privately registered:
United States
More flights under this callsign
Pilot: Merv A. (1555)
Aircraft: Unknown
(LEG2)
More flights by this aircraft type
Origin: KOXR Oxnard
United States
Destination: KCRQ McClellan-Palomar
United States
More flights between these airports :: More routes between these airports
Route: VTU044 GINNA V326 VNY V186 ROBNN V458 OCN
File this flight plan on PilotEdge
Remarks: TEC route VTUP23
Altitude:
(Current/Filed)
7,000ft
Speed:
(Current/Filed)
200kts
Departed: 29-Jan-21 12:40 PM
Arrived: 29-Jan-21 01:33 PM
Distance/Time
Traveled:
116nm/0:52
Distance/Time
To Go:
Arrived

Flight Plot

Page will automatically refresh every two minutes.


Map Options




Map Legend


Flown Route
Filed Route
Departure Airport
Arrival Airport
Navaid (VOR, NDB)
Fix

Horizontal Profiles

Position Reports

Time Latitude Longitude Heading Altitude Ground
Speed
29-Jan-21 12:16 34.199429 -119.214692 359 46ft 0kts
29-Jan-21 12:19 34.199429 -119.214692 359 46ft 0kts
29-Jan-21 12:21 34.199429 -119.214692 359 46ft 0kts
29-Jan-21 12:22 34.199429 -119.214692 359 46ft 0kts
29-Jan-21 12:23 34.199429 -119.214692 359 46ft 0kts
29-Jan-21 12:24 34.199429 -119.214692 359 46ft 0kts
29-Jan-21 12:25 34.199429 -119.214692 359 46ft 0kts
29-Jan-21 12:26 34.199429 -119.214692 359 46ft 0kts
29-Jan-21 12:28 34.199429 -119.214692 359 46ft 0kts
29-Jan-21 12:29 34.199429 -119.214692 359 46ft 0kts
29-Jan-21 12:30 34.199429 -119.214692 359 46ft 0kts
29-Jan-21 12:31 34.199429 -119.214692 359 46ft 0kts
29-Jan-21 12:32 34.199855 -119.213200 90 46ft 11kts
29-Jan-21 12:33 34.199824 -119.208162 89 46ft 14kts
29-Jan-21 12:34 34.199789 -119.205750 90 46ft 15kts
29-Jan-21 12:35 34.199726 -119.199881 90 46ft 18kts
29-Jan-21 12:36 34.199850 -119.197265 312 46ft 0kts
29-Jan-21 12:37 34.199851 -119.197267 312 46ft 0kts
29-Jan-21 12:38 34.199951 -119.197538 5 46ft 0kts
29-Jan-21 12:39 34.200734 -119.197804 271 46ft 2kts
29-Jan-21 12:40 34.201031 -119.219667 269 492ft 129kts
29-Jan-21 12:41 34.199161 -119.267461 267 1838ft 146kts
29-Jan-21 12:42 34.196415 -119.315723 266 3149ft 139kts
29-Jan-21 12:43 34.195134 -119.360925 266 4508ft 137kts
29-Jan-21 12:44 34.218750 -119.381206 51 5513ft 174kts
29-Jan-21 12:45 34.225011 -119.292150 92 6881ft 186kts
29-Jan-21 12:47 34.223636 -119.189449 91 6999ft 209kts
29-Jan-21 12:48 34.223514 -119.119510 91 6994ft 206kts
29-Jan-21 12:48 34.223496 -119.061516 91 6990ft 208kts
29-Jan-21 12:49 34.223481 -118.991132 91 6990ft 209kts
29-Jan-21 12:51 34.223479 -118.908558 91 6994ft 210kts
29-Jan-21 12:52 34.223469 -118.843170 91 6999ft 210kts
29-Jan-21 12:52 34.223472 -118.784103 91 7004ft 210kts
29-Jan-21 12:54 34.223468 -118.642371 91 7006ft 211kts
29-Jan-21 12:56 34.223462 -118.560567 91 7005ft 211kts
29-Jan-21 12:57 34.217693 -118.470763 110 6990ft 204kts
29-Jan-21 12:59 34.186696 -118.369600 113 7005ft 203kts
29-Jan-21 12:59 34.170564 -118.316179 113 7002ft 203kts
29-Jan-21 13:00 34.152654 -118.256889 113 7000ft 203kts
29-Jan-21 13:01 34.133284 -118.192797 113 7008ft 203kts
29-Jan-21 13:03 34.107142 -118.106349 112 7026ft 207kts
29-Jan-21 13:04 34.090678 -118.051905 112 7044ft 207kts
29-Jan-21 13:05 34.071746 -117.986178 113 7048ft 208kts
29-Jan-21 13:06 34.042408 -117.899793 114 7033ft 208kts
29-Jan-21 13:07 34.029474 -117.861214 115 7025ft 208kts
29-Jan-21 13:08 34.004149 -117.785729 114 7018ft 208kts
29-Jan-21 13:08 33.989721 -117.742715 114 7011ft 208kts
29-Jan-21 13:09 33.968029 -117.678042 114 7022ft 208kts
29-Jan-21 13:11 33.939060 -117.591718 114 7022ft 208kts
29-Jan-21 13:11 33.924804 -117.548581 114 7018ft 208kts
29-Jan-21 13:12 33.885688 -117.501992 151 7009ft 200kts
29-Jan-21 13:13 33.839547 -117.463714 148 7008ft 201kts
29-Jan-21 13:14 33.793566 -117.425004 148 6997ft 202kts
29-Jan-21 13:15 33.747495 -117.386347 148 6997ft 202kts
29-Jan-21 13:16 33.701323 -117.347627 148 6998ft 202kts
29-Jan-21 13:17 33.655289 -117.308991 149 6997ft 202kts
29-Jan-21 13:18 33.609079 -117.270382 149 6999ft 202kts
29-Jan-21 13:19 33.562813 -117.231728 149 7001ft 202kts
29-Jan-21 13:20 33.516698 -117.193234 149 7001ft 202kts
29-Jan-21 13:22 33.468719 -117.159351 169 7007ft 197kts
29-Jan-21 13:23 33.406316 -117.145442 174 7011ft 194kts
29-Jan-21 13:24 33.345029 -117.132490 174 6221ft 187kts
29-Jan-21 13:25 33.310880 -117.124072 171 5640ft 191kts
29-Jan-21 13:26 33.250353 -117.108917 171 4469ft 183kts
29-Jan-21 13:27 33.214268 -117.117158 229 3771ft 162kts
29-Jan-21 13:28 33.187514 -117.156929 231 2858ft 145kts
29-Jan-21 13:29 33.154485 -117.205201 230 1577ft 126kts
29-Jan-21 13:30 33.142889 -117.222435 235 1209ft 97kts
29-Jan-21 13:31 33.132942 -117.251306 255 766ft 89kts
29-Jan-21 13:32 33.128577 -117.277727 259 303ft 49kts
29-Jan-21 13:33 33.127176 -117.283038 223 303ft 0kts
29-Jan-21 13:34 33.127176 -117.283038 223 303ft 0kts
29-Jan-21 13:35 33.126973 -117.282748 83 303ft 10kts
29-Jan-21 13:36 33.127527 -117.279217 78 303ft 17kts
29-Jan-21 13:37 33.127875 -117.275236 165 303ft 6kts
29-Jan-21 13:38 33.128158 -117.274085 351 303ft 0kts
29-Jan-21 13:39 33.128158 -117.274085 351 303ft 0kts

Navigation Log

Ident Type
Flight plan parsing failed, navigation log unavailable